createdAt,value
2022-08-17T00:00:34.404Z,21.60
2022-08-17T00:03:50.255Z,19.70
2022-08-17T00:06:57.609Z,19.10
2022-08-17T00:09:53.436Z,20.00
2022-08-17T00:13:37.046Z,18.50
2022-08-17T00:16:56.345Z,18.20
2022-08-17T00:19:50.342Z,20.10
2022-08-17T00:22:39.717Z,20.30
2022-08-17T00:25:57.265Z,19.20
2022-08-17T00:28:55.383Z,19.30
2022-08-17T00:33:14.306Z,21.90
2022-08-17T00:35:40.143Z,19.90
2022-08-17T00:38:30.489Z,18.90
2022-08-17T00:41:21.038Z,18.90
2022-08-17T00:44:36.131Z,20.30
2022-08-17T00:47:40.246Z,18.90
2022-08-17T00:50:34.859Z,19.60
2022-08-17T00:53:38.920Z,18.60
2022-08-17T00:56:50.171Z,23.00
2022-08-17T00:59:47.114Z,23.20
2022-08-17T01:03:07.578Z,23.90
2022-08-17T01:06:01.620Z,22.60
2022-08-17T01:09:03.483Z,22.50
2022-08-17T01:11:52.186Z,21.20
2022-08-17T01:14:56.372Z,23.10
2022-08-17T01:18:06.371Z,22.60
2022-08-17T01:20:56.025Z,22.00
2022-08-17T01:23:49.349Z,21.70
2022-08-17T01:26:41.879Z,19.90
2022-08-17T01:29:38.694Z,20.90
2022-08-17T01:32:35.709Z,25.70
2022-08-17T01:35:32.505Z,21.60
2022-08-17T01:38:27.004Z,19.30
2022-08-17T01:41:26.099Z,21.70
2022-08-17T01:44:37.393Z,19.00
2022-08-17T01:47:38.868Z,19.10
2022-08-17T01:50:40.355Z,23.40
2022-08-17T01:53:51.940Z,20.10
2022-08-17T01:56:55.372Z,23.20
2022-08-17T02:00:13.136Z,21.30
2022-08-17T02:03:09.033Z,22.00
2022-08-17T02:06:27.672Z,23.40
2022-08-17T02:09:19.520Z,25.70
2022-08-17T02:12:39.845Z,22.10
2022-08-17T02:15:44.341Z,20.70
2022-08-17T02:18:58.031Z,21.10
2022-08-17T02:22:10.816Z,23.70
2022-08-17T02:25:12.467Z,20.20
2022-08-17T02:27:58.520Z,23.00
2022-08-17T02:31:01.977Z,23.10
2022-08-17T02:34:17.429Z,24.60
2022-08-17T02:37:19.224Z,25.80
2022-08-17T02:40:35.703Z,25.90
2022-08-17T02:43:39.933Z,22.40
2022-08-17T02:46:32.129Z,23.00
2022-08-17T02:49:21.041Z,24.70
2022-08-17T02:52:42.413Z,22.20
2022-08-17T02:56:05.765Z,23.60
2022-08-17T02:59:00.478Z,26.40
2022-08-17T03:02:16.824Z,26.10
2022-08-17T03:05:13.682Z,24.60
2022-08-17T03:08:24.165Z,25.00
2022-08-17T03:11:21.165Z,24.20
2022-08-17T03:14:40.730Z,19.70
2022-08-17T03:17:29.854Z,22.80
2022-08-17T03:20:45.382Z,29.50
2022-08-17T03:23:42.830Z,23.70
2022-08-17T03:26:35.540Z,22.10
2022-08-17T03:29:46.885Z,24.30
2022-08-17T03:32:42.069Z,24.80
2022-08-17T03:36:06.652Z,22.70
2022-08-17T03:39:21.356Z,20.70
2022-08-17T03:42:31.900Z,27.70
2022-08-17T03:45:47.070Z,22.50
2022-08-17T03:49:21.336Z,28.70
2022-08-17T03:52:45.547Z,23.80
2022-08-17T03:56:17.561Z,20.60
2022-08-17T03:59:30.854Z,25.10
2022-08-17T04:02:27.196Z,22.40
2022-08-17T04:05:27.985Z,24.20
2022-08-17T04:08:31.871Z,22.80
2022-08-17T04:11:24.197Z,25.00
2022-08-17T04:14:13.275Z,34.70
2022-08-17T04:16:56.891Z,24.70
2022-08-17T04:20:06.868Z,27.20
2022-08-17T04:23:35.066Z,27.80
2022-08-17T04:26:53.300Z,27.40
2022-08-17T04:29:50.870Z,35.50
2022-08-17T04:33:03.471Z,28.80
2022-08-17T04:36:05.470Z,33.80
2022-08-17T04:38:51.534Z,32.40
2022-08-17T04:41:56.294Z,24.90
2022-08-17T04:44:51.163Z,28.10
2022-08-17T04:47:42.470Z,27.30
2022-08-17T04:50:25.770Z,29.60
2022-08-17T04:53:08.991Z,34.70
2022-08-17T04:55:53.437Z,30.10
2022-08-17T04:58:39.184Z,42.40
2022-08-17T05:01:28.229Z,44.50
2022-08-17T05:04:33.099Z,38.10
2022-08-17T05:07:23.065Z,46.40
2022-08-17T05:10:07.831Z,41.80
2022-08-17T05:13:09.595Z,42.50
2022-08-17T05:16:05.560Z,42.40
2022-08-17T05:18:51.907Z,44.90
2022-08-17T05:21:43.654Z,35.70
2022-08-17T05:24:39.129Z,34.80
2022-08-17T05:27:29.368Z,32.80
2022-08-17T05:30:18.986Z,32.50
2022-08-17T05:33:06.581Z,28.60
2022-08-17T05:35:51.551Z,30.50
2022-08-17T05:38:42.244Z,28.20
2022-08-17T05:41:27.983Z,26.60
2022-08-17T05:44:11.190Z,28.30
2022-08-17T05:46:59.921Z,27.10
2022-08-17T06:08:37.660Z,25.70
2022-08-17T06:11:45.641Z,25.40
2022-08-17T06:15:12.841Z,23.60
2022-08-17T06:18:20.498Z,25.50
2022-08-17T06:21:06.898Z,18.80
2022-08-17T06:24:31.717Z,27.40
2022-08-17T06:27:36.897Z,25.10
2022-08-17T06:31:00.815Z,25.20
2022-08-17T06:33:47.600Z,21.20
2022-08-17T06:37:05.123Z,26.40
2022-08-17T06:40:37.853Z,20.80
2022-08-17T06:43:35.614Z,18.50
2022-08-17T06:50:36.795Z,25.90
2022-08-17T06:53:30.606Z,24.70
2022-08-17T06:56:53.119Z,17.90
2022-08-17T06:59:55.742Z,24.00
2022-08-17T07:02:52.720Z,21.20
2022-08-17T07:05:44.498Z,19.90
2022-08-17T07:08:46.010Z,25.70
2022-08-17T07:11:48.390Z,20.10
2022-08-17T07:14:37.972Z,23.60
2022-08-17T07:17:46.793Z,28.00
2022-08-17T07:20:31.449Z,20.50
2022-08-17T07:23:34.624Z,22.50
2022-08-17T07:26:17.717Z,20.30
2022-08-17T07:29:02.409Z,21.30
2022-08-17T07:31:46.108Z,21.40
2022-08-17T07:34:51.944Z,22.40
2022-08-17T07:37:38.894Z,19.50
2022-08-17T07:41:01.586Z,18.30
2022-08-17T07:43:52.375Z,20.70
2022-08-17T07:47:06.831Z,18.80
2022-08-17T07:49:52.744Z,21.70
2022-08-17T07:52:50.251Z,19.50
2022-08-17T07:55:40.610Z,19.20
2022-08-17T07:58:24.239Z,19.40
2022-08-17T08:01:15.366Z,22.50
2022-08-17T08:04:29.160Z,21.10
2022-08-17T08:07:30.547Z,20.70
2022-08-17T08:10:26.179Z,19.10
2022-08-17T08:13:14.698Z,19.40
2022-08-17T08:16:24.607Z,21.70
2022-08-17T08:19:08.408Z,19.60
2022-08-17T08:22:21.516Z,19.40
2022-08-17T08:25:42.143Z,19.00
2022-08-17T08:28:40.117Z,19.00
2022-08-17T08:31:44.164Z,16.00
2022-08-17T08:35:01.644Z,16.40
2022-08-17T08:38:07.661Z,16.70
2022-08-17T08:41:16.479Z,20.80
2022-08-17T08:44:08.127Z,18.60
2022-08-17T08:47:05.535Z,16.30
2022-08-17T08:50:38.265Z,14.70
2022-08-17T08:53:41.825Z,15.40
2022-08-17T08:57:22.332Z,15.00
2022-08-17T09:00:04.952Z,15.30
2022-08-17T09:03:43.787Z,17.80
2022-08-17T09:06:47.176Z,12.70
2022-08-17T09:09:43.098Z,11.60
2022-08-17T09:12:48.679Z,12.60
2022-08-17T09:15:39.531Z,17.90
2022-08-17T09:19:03.286Z,14.80
2022-08-17T09:21:33.834Z,12.50
2022-08-17T09:24:28.418Z,13.50
2022-08-17T09:27:22.387Z,13.30
2022-08-17T09:30:09.839Z,12.10
2022-08-17T09:33:07.167Z,12.80
2022-08-17T09:35:59.216Z,12.20
2022-08-17T09:38:49.173Z,14.30
2022-08-17T09:42:10.588Z,12.10
2022-08-17T09:45:04.194Z,13.60
2022-08-17T09:48:05.690Z,14.50
2022-08-17T09:54:01.741Z,10.10
2022-08-17T09:57:31.606Z,12.60
2022-08-17T10:00:30.798Z,13.30
2022-08-17T10:03:28.279Z,10.20
2022-08-17T10:06:22.201Z,11.20
2022-08-17T10:09:22.560Z,7.50
2022-08-17T10:12:20.389Z,10.10
2022-08-17T10:15:24.891Z,11.50
2022-08-17T10:18:25.530Z,8.90
2022-08-17T10:21:35.974Z,9.00
2022-08-17T10:25:23.088Z,12.10
2022-08-17T10:28:04.653Z,9.40
2022-08-17T10:31:16.610Z,12.50
2022-08-17T10:34:28.887Z,10.30
2022-08-17T10:37:46.675Z,12.00
2022-08-17T10:40:36.405Z,11.50
2022-08-17T10:43:40.219Z,10.30
2022-08-17T10:46:42.415Z,9.50
2022-08-17T10:49:47.916Z,10.30
2022-08-17T10:52:31.496Z,9.30
2022-08-17T10:55:18.230Z,8.30
2022-08-17T10:58:24.509Z,9.90
2022-08-17T11:01:12.750Z,9.10
2022-08-17T11:04:03.738Z,8.40
2022-08-17T11:07:17.909Z,8.30
2022-08-17T11:10:24.578Z,9.00
2022-08-17T11:13:38.723Z,13.20
2022-08-17T11:16:40.087Z,11.40
2022-08-17T11:22:55.780Z,9.90
2022-08-17T11:26:26.640Z,15.30
2022-08-17T11:29:29.374Z,10.20
2022-08-17T11:32:54.763Z,9.10
2022-08-17T11:35:51.503Z,10.60
2022-08-17T11:39:03.692Z,9.60
2022-08-17T11:42:08.978Z,10.50
2022-08-17T11:44:54.860Z,8.30
2022-08-17T11:48:26.644Z,11.40
2022-08-17T11:51:31.355Z,9.50
2022-08-17T11:54:34.566Z,11.20
2022-08-17T11:57:27.383Z,7.50
2022-08-17T12:00:45.280Z,9.60
2022-08-17T12:03:31.902Z,10.10
2022-08-17T12:06:33.573Z,10.70
2022-08-17T12:09:25.009Z,9.60
2022-08-17T12:12:16.931Z,9.00
2022-08-17T12:15:10.940Z,12.80
2022-08-17T12:17:57.170Z,7.80
2022-08-17T12:20:44.217Z,7.50
2022-08-17T12:24:01.543Z,10.90
2022-08-17T12:26:52.485Z,28.90
2022-08-17T12:29:38.655Z,17.30
2022-08-17T12:32:25.612Z,14.00
2022-08-17T12:35:29.716Z,8.90
2022-08-17T12:38:26.840Z,12.50
2022-08-17T12:44:21.893Z,9.20
2022-08-17T12:47:26.090Z,8.30
2022-08-17T12:50:29.259Z,8.50
2022-08-17T12:53:46.409Z,10.00
2022-08-17T12:56:38.164Z,9.00
2022-08-17T12:59:43.112Z,10.60
2022-08-17T13:03:02.162Z,11.50
2022-08-17T13:06:07.769Z,15.30
2022-08-17T13:09:41.867Z,15.30
2022-08-17T13:12:53.132Z,10.60
2022-08-17T13:16:39.896Z,8.80
2022-08-17T13:19:49.743Z,8.50
2022-08-17T13:23:22.719Z,10.20
2022-08-17T13:27:02.142Z,9.50
2022-08-17T13:30:34.046Z,13.70
2022-08-17T13:33:59.427Z,9.30
2022-08-17T13:37:38.036Z,9.40
2022-08-17T13:40:36.018Z,10.80
2022-08-17T13:44:11.925Z,12.50
2022-08-17T13:47:00.901Z,10.90
2022-08-17T13:50:24.561Z,13.00
2022-08-17T13:53:45.975Z,11.00
2022-08-17T13:57:13.703Z,13.30
2022-08-17T14:00:35.565Z,8.50
2022-08-17T14:03:51.395Z,13.70
2022-08-17T14:07:34.419Z,13.60
2022-08-17T14:10:43.528Z,10.50
2022-08-17T14:13:30.186Z,9.70
2022-08-17T14:16:42.073Z,7.50
2022-08-17T14:19:32.526Z,9.60
2022-08-17T14:22:49.500Z,10.30
2022-08-17T14:25:33.028Z,7.50
2022-08-17T14:28:18.325Z,7.50
2022-08-17T14:31:22.118Z,10.20
2022-08-17T14:34:06.573Z,7.60
2022-08-17T14:36:51.525Z,16.20
2022-08-17T14:39:34.851Z,9.80
2022-08-17T14:42:24.827Z,8.00
2022-08-17T14:45:29.895Z,14.30
2022-08-17T14:48:16.093Z,12.30
2022-08-17T14:51:23.449Z,8.50
2022-08-17T14:54:34.111Z,8.50
2022-08-17T14:57:44.432Z,8.70
2022-08-17T15:00:52.630Z,8.60
2022-08-17T15:03:59.468Z,10.40
2022-08-17T15:07:00.387Z,8.60
2022-08-17T15:10:04.525Z,14.80
2022-08-17T15:13:15.954Z,15.60
2022-08-17T15:16:02.986Z,11.40
2022-08-17T15:18:51.078Z,10.70
2022-08-17T15:21:50.107Z,14.20
2022-08-17T15:28:32.456Z,12.80
2022-08-17T15:32:00.822Z,10.20
2022-08-17T15:35:05.846Z,14.20
2022-08-17T15:37:52.651Z,14.00
2022-08-17T15:40:59.171Z,13.10
2022-08-17T15:43:58.805Z,19.30
2022-08-17T15:46:47.274Z,26.10
2022-08-17T15:52:52.233Z,18.50
2022-08-17T15:55:49.303Z,10.80
2022-08-17T15:59:06.092Z,8.50
2022-08-17T16:03:09.853Z,15.80
2022-08-17T16:05:46.621Z,23.40
2022-08-17T16:08:45.092Z,14.40
2022-08-17T16:11:32.497Z,11.00
2022-08-17T16:14:38.351Z,12.60
2022-08-17T16:17:38.935Z,12.60
2022-08-17T16:20:36.729Z,18.80
2022-08-17T16:23:34.281Z,14.70
2022-08-17T16:27:12.498Z,8.90
2022-08-17T16:30:58.498Z,10.90
2022-08-17T16:34:01.048Z,12.00
2022-08-17T16:37:18.611Z,15.90
2022-08-17T16:40:11.633Z,13.90
2022-08-17T16:43:37.202Z,14.60
2022-08-17T16:47:06.829Z,14.20
2022-08-17T16:50:36.022Z,15.60
2022-08-17T16:53:59.295Z,15.80
2022-08-17T16:56:50.890Z,21.60
2022-08-17T17:00:21.284Z,48.70
2022-08-17T17:03:20.402Z,33.70
2022-08-17T17:06:40.690Z,23.00
2022-08-17T17:09:46.509Z,28.70
2022-08-17T17:13:08.502Z,35.50
2022-08-17T17:16:38.398Z,26.60
2022-08-17T17:19:54.554Z,48.00
2022-08-17T17:26:24.661Z,40.40
2022-08-17T17:29:26.909Z,39.20
2022-08-17T17:32:37.825Z,26.00
2022-08-17T17:35:47.639Z,26.20
2022-08-17T17:39:35.097Z,24.50
2022-08-17T17:42:35.369Z,30.80
2022-08-17T17:45:38.805Z,31.60
2022-08-17T17:48:27.484Z,29.70
2022-08-17T17:52:02.894Z,31.30
2022-08-17T17:55:56.009Z,22.20
2022-08-17T17:59:32.258Z,21.10
2022-08-17T18:02:51.400Z,30.80
2022-08-17T18:05:49.996Z,24.40
2022-08-17T18:09:43.032Z,25.90
2022-08-17T18:13:25.948Z,23.60
2022-08-17T18:16:53.805Z,20.30
2022-08-17T18:20:00.506Z,25.90
2022-08-17T18:23:44.032Z,26.10
2022-08-17T18:27:00.534Z,23.90
2022-08-17T18:31:04.334Z,24.10
2022-08-17T18:34:47.550Z,35.60
2022-08-17T18:38:16.752Z,29.90
2022-08-17T18:41:42.464Z,19.20
2022-08-17T18:45:03.464Z,22.70
2022-08-17T18:48:53.498Z,23.00
2022-08-17T18:52:48.479Z,28.10
2022-08-17T18:57:07.692Z,21.70
2022-08-17T19:00:55.374Z,22.70
2022-08-17T19:03:47.133Z,26.40
2022-08-17T19:07:15.127Z,23.10
2022-08-17T19:10:31.431Z,28.50
2022-08-17T19:13:31.745Z,32.20
2022-08-17T19:16:37.682Z,25.60
2022-08-17T19:20:15.405Z,34.90
2022-08-17T19:23:04.237Z,26.00
2022-08-17T19:26:54.009Z,27.10
2022-08-17T19:30:08.427Z,29.10
2022-08-17T19:36:21.105Z,35.90
2022-08-17T19:43:35.018Z,32.10
2022-08-17T19:47:03.402Z,28.50
2022-08-17T19:50:22.477Z,20.00
2022-08-17T19:54:05.731Z,30.30
2022-08-17T19:57:45.148Z,24.10
2022-08-17T20:01:34.674Z,22.10
2022-08-17T20:04:59.713Z,27.20
2022-08-17T20:08:09.755Z,24.90
2022-08-17T20:11:38.765Z,31.50
2022-08-17T20:15:32.974Z,31.70
2022-08-17T20:19:41.658Z,24.40
2022-08-17T20:23:29.413Z,27.50
2022-08-17T20:27:04.945Z,28.80
2022-08-17T20:30:27.242Z,33.20
2022-08-17T20:34:05.767Z,35.90
2022-08-17T20:37:43.280Z,31.10
2022-08-17T20:41:35.047Z,28.40
2022-08-17T20:45:01.769Z,28.70
2022-08-17T20:48:37.639Z,25.20
2022-08-17T20:52:15.873Z,24.10
2022-08-17T20:55:32.315Z,30.50
2022-08-17T20:58:56.460Z,34.70
2022-08-17T21:02:19.111Z,37.90
2022-08-17T21:05:24.606Z,31.50
2022-08-17T21:08:53.945Z,29.60
2022-08-17T21:12:19.605Z,26.60
2022-08-17T21:15:36.666Z,28.80
2022-08-17T21:18:59.410Z,31.80
2022-08-17T21:21:53.680Z,31.10
2022-08-17T21:24:51.334Z,30.60
2022-08-17T21:27:58.787Z,25.30
2022-08-17T21:31:17.049Z,29.80
2022-08-17T21:34:36.522Z,32.10
2022-08-17T21:37:42.213Z,29.40
2022-08-17T21:41:08.777Z,21.80
2022-08-17T21:44:31.272Z,22.40
2022-08-17T21:48:13.945Z,23.00
2022-08-17T21:51:16.484Z,22.40
2022-08-17T21:54:45.697Z,21.40
2022-08-17T21:58:13.544Z,19.70
2022-08-17T22:01:51.798Z,20.60
2022-08-17T22:05:38.645Z,22.10
2022-08-17T22:09:20.544Z,19.00
2022-08-17T22:12:54.394Z,22.50
2022-08-17T22:16:30.108Z,19.60
2022-08-17T22:20:02.057Z,20.30
2022-08-17T22:23:30.816Z,19.30
2022-08-17T22:27:02.751Z,19.70
2022-08-17T22:31:03.146Z,19.40
2022-08-17T22:35:09.780Z,22.10
2022-08-17T22:38:55.368Z,19.00
2022-08-17T22:42:36.509Z,22.50
2022-08-17T22:46:18.004Z,17.40
2022-08-17T22:50:24.643Z,21.30
2022-08-17T22:54:09.768Z,21.10
2022-08-17T22:57:55.018Z,17.40
2022-08-17T23:01:01.162Z,20.50
2022-08-17T23:04:54.673Z,18.90
2022-08-17T23:08:16.951Z,18.30
2022-08-17T23:11:49.491Z,20.30
2022-08-17T23:15:42.030Z,17.60
2022-08-17T23:19:37.319Z,18.50
2022-08-17T23:23:23.671Z,15.80
2022-08-17T23:27:20.307Z,19.00
2022-08-17T23:31:25.841Z,17.90
2022-08-17T23:35:39.904Z,19.00
2022-08-17T23:39:48.555Z,17.90
2022-08-17T23:43:35.737Z,18.80
2022-08-17T23:47:21.957Z,17.40
2022-08-17T23:50:57.699Z,20.00
2022-08-17T23:54:50.561Z,18.60
2022-08-17T23:58:12.056Z,20.80
